createdAt,value
2023-02-06T00:00:47.962Z,5.55
2023-02-06T00:03:14.843Z,5.82
2023-02-06T00:05:42.347Z,5.03
2023-02-06T00:08:09.772Z,5.43
2023-02-06T00:10:37.002Z,5.45
2023-02-06T00:13:03.770Z,5.05
2023-02-06T00:15:31.112Z,5.47
2023-02-06T00:17:58.364Z,5.55
2023-02-06T00:20:25.135Z,5.00
2023-02-06T00:22:52.293Z,5.28
2023-02-06T00:25:19.502Z,4.85
2023-02-06T00:27:46.731Z,5.35
2023-02-06T00:30:14.104Z,5.05
2023-02-06T00:32:41.300Z,5.55
2023-02-06T00:35:08.712Z,5.68
2023-02-06T00:37:35.901Z,5.68
2023-02-06T00:40:03.171Z,4.47
2023-02-06T00:42:30.752Z,5.10
2023-02-06T00:44:58.185Z,4.68
2023-02-06T00:47:25.397Z,5.22
2023-02-06T00:49:52.153Z,5.47
2023-02-06T00:52:19.342Z,4.70
2023-02-06T00:54:46.546Z,5.10
2023-02-06T00:57:13.748Z,5.35
2023-02-06T00:59:41.843Z,5.25
2023-02-06T01:02:08.599Z,4.88
2023-02-06T01:04:36.140Z,4.82
2023-02-06T01:07:02.984Z,5.82
2023-02-06T01:09:31.453Z,5.00
2023-02-06T01:11:58.668Z,4.90
2023-02-06T01:14:26.341Z,5.00
2023-02-06T01:16:53.560Z,5.05
2023-02-06T01:19:20.373Z,4.95
2023-02-06T01:21:47.589Z,4.75
2023-02-06T01:24:16.484Z,5.43
2023-02-06T01:26:44.400Z,5.20
2023-02-06T01:29:11.620Z,5.55
2023-02-06T01:31:38.882Z,5.38
2023-02-06T01:34:08.037Z,6.38
2023-02-06T01:36:36.244Z,5.18
2023-02-06T01:39:03.482Z,5.10
2023-02-06T01:41:30.749Z,4.63
2023-02-06T01:44:19.006Z,5.20
2023-02-06T01:46:48.166Z,4.88
2023-02-06T01:49:27.479Z,4.53
2023-02-06T01:51:59.090Z,5.00
2023-02-06T01:54:26.464Z,4.75
2023-02-06T01:56:58.685Z,4.40
2023-02-06T01:59:26.501Z,5.00
2023-02-06T02:01:53.901Z,5.18
2023-02-06T02:04:23.651Z,5.35
2023-02-06T02:07:04.685Z,4.97
2023-02-06T02:09:32.549Z,4.43
2023-02-06T02:11:59.768Z,5.50
2023-02-06T02:14:27.223Z,5.00
2023-02-06T02:17:14.279Z,5.15
2023-02-06T02:20:07.604Z,4.47
2023-02-06T02:22:50.109Z,5.18
2023-02-06T02:25:41.712Z,4.55
2023-02-06T02:28:24.205Z,4.30
2023-02-06T02:31:00.312Z,4.20
2023-02-06T02:34:04.610Z,4.50
2023-02-06T02:36:42.927Z,4.72
2023-02-06T02:39:35.332Z,4.70
2023-02-06T02:42:43.302Z,4.72
2023-02-06T02:45:20.567Z,4.28
2023-02-06T02:47:56.888Z,4.68
2023-02-06T02:50:24.244Z,4.63
2023-02-06T02:52:51.644Z,4.32
2023-02-06T02:55:22.449Z,4.35
2023-02-06T02:58:00.563Z,3.83
2023-02-06T03:00:27.743Z,3.95
2023-02-06T03:02:57.457Z,3.92
2023-02-06T03:05:25.794Z,3.55
2023-02-06T03:08:21.496Z,3.55
2023-02-06T03:11:14.915Z,4.32
2023-02-06T03:13:48.927Z,3.47
2023-02-06T03:16:33.139Z,3.38
2023-02-06T03:19:17.831Z,3.65
2023-02-06T03:21:46.446Z,3.83
2023-02-06T03:24:19.520Z,3.40
2023-02-06T03:26:49.374Z,3.67
2023-02-06T03:29:17.687Z,3.55
2023-02-06T03:31:56.433Z,4.15
2023-02-06T03:34:23.659Z,3.47
2023-02-06T03:36:51.758Z,3.42
2023-02-06T03:39:19.077Z,3.70
2023-02-06T03:41:47.163Z,3.60
2023-02-06T03:44:18.675Z,3.47
2023-02-06T03:46:47.609Z,3.65
2023-02-06T03:49:16.763Z,3.47
2023-02-06T03:51:48.260Z,3.53
2023-02-06T03:54:19.326Z,4.15
2023-02-06T03:56:54.187Z,4.40
2023-02-06T03:59:21.541Z,3.80
2023-02-06T04:01:53.053Z,3.97
2023-02-06T04:04:24.889Z,3.95
2023-02-06T04:06:51.653Z,4.00
2023-02-06T04:09:18.826Z,3.92
2023-02-06T04:11:46.095Z,4.40
2023-02-06T04:14:13.317Z,4.03
2023-02-06T04:16:40.566Z,3.85
2023-02-06T04:19:08.074Z,4.13
2023-02-06T04:21:35.287Z,3.90
2023-02-06T04:24:02.056Z,3.50
2023-02-06T04:26:28.802Z,4.07
2023-02-06T04:28:56.001Z,3.90
2023-02-06T04:31:23.960Z,3.65
2023-02-06T04:33:51.241Z,3.50
2023-02-06T04:36:19.234Z,3.90
2023-02-06T04:38:46.489Z,3.88
2023-02-06T04:41:13.263Z,3.92
2023-02-06T04:43:40.582Z,4.28
2023-02-06T04:46:07.683Z,4.13
2023-02-06T04:48:34.918Z,3.85
2023-02-06T04:51:01.767Z,4.10
2023-02-06T04:53:29.022Z,3.90
2023-02-06T04:56:06.175Z,3.45
2023-02-06T04:58:33.854Z,4.13
2023-02-06T05:01:01.218Z,4.53
2023-02-06T05:03:29.641Z,4.10
2023-02-06T05:05:59.878Z,4.38
2023-02-06T05:08:27.166Z,4.20
2023-02-06T05:10:55.176Z,4.13
2023-02-06T05:13:22.477Z,3.95
2023-02-06T05:15:49.772Z,3.72
2023-02-06T05:18:17.102Z,3.58
2023-02-06T05:20:44.341Z,3.92
2023-02-06T05:23:11.827Z,4.07
2023-02-06T05:25:40.325Z,3.28
2023-02-06T05:28:08.176Z,3.85
2023-02-06T05:30:36.770Z,3.95
2023-02-06T05:33:04.089Z,4.15
2023-02-06T05:35:31.396Z,4.07
2023-02-06T05:37:58.728Z,4.63
2023-02-06T05:40:26.540Z,4.20
2023-02-06T05:42:53.739Z,4.25
2023-02-06T05:45:21.310Z,3.70
2023-02-06T05:47:48.492Z,3.67
2023-02-06T05:50:15.613Z,4.22
2023-02-06T05:52:42.824Z,4.00
2023-02-06T05:55:09.703Z,4.03
2023-02-06T05:57:36.936Z,4.07
2023-02-06T06:00:05.682Z,4.50
2023-02-06T06:02:38.363Z,4.55
2023-02-06T06:05:05.791Z,4.32
2023-02-06T06:07:33.020Z,4.30
2023-02-06T06:10:00.623Z,4.53
2023-02-06T06:12:27.809Z,4.03
2023-02-06T06:14:55.031Z,4.78
2023-02-06T06:17:21.848Z,4.55
2023-02-06T06:19:49.008Z,4.28
2023-02-06T06:22:16.235Z,4.75
2023-02-06T06:24:43.021Z,3.13
2023-02-06T06:27:10.804Z,4.22
2023-02-06T06:29:38.117Z,3.97
2023-02-06T06:32:05.392Z,3.60
2023-02-06T06:34:32.243Z,3.65
2023-02-06T06:36:59.198Z,3.33
2023-02-06T06:39:26.379Z,3.40
2023-02-06T06:41:53.603Z,3.53
2023-02-06T06:44:20.533Z,3.63
2023-02-06T06:46:47.320Z,3.67
2023-02-06T06:49:14.737Z,3.33
2023-02-06T06:51:41.972Z,3.33
2023-02-06T06:54:09.170Z,4.32
2023-02-06T06:56:36.432Z,3.88
2023-02-06T06:59:03.663Z,3.90
2023-02-06T07:01:30.890Z,3.38
2023-02-06T07:04:01.069Z,3.30
2023-02-06T07:06:28.304Z,3.00
2023-02-06T07:08:55.560Z,3.80
2023-02-06T07:11:24.308Z,3.92
2023-02-06T07:13:51.540Z,3.88
2023-02-06T07:16:18.856Z,3.55
2023-02-06T07:18:46.154Z,3.58
2023-02-06T07:21:15.888Z,3.88
2023-02-06T07:23:42.901Z,3.47
2023-02-06T07:26:10.442Z,3.35
2023-02-06T07:28:37.408Z,3.72
2023-02-06T07:31:06.093Z,3.60
2023-02-06T07:33:33.829Z,3.67
2023-02-06T07:36:03.885Z,3.03
2023-02-06T07:38:31.486Z,3.35
2023-02-06T07:41:03.034Z,3.83
2023-02-06T07:43:30.418Z,3.33
2023-02-06T07:46:05.541Z,3.63
2023-02-06T07:48:32.535Z,3.40
2023-02-06T07:51:05.902Z,3.30
2023-02-06T07:53:33.191Z,3.55
2023-02-06T07:56:00.044Z,3.67
2023-02-06T07:58:27.347Z,4.03
2023-02-06T08:00:54.945Z,3.92
2023-02-06T08:03:22.301Z,3.80
2023-02-06T08:05:49.508Z,4.45
2023-02-06T08:08:16.741Z,4.50
2023-02-06T08:10:43.543Z,4.32
2023-02-06T08:13:10.997Z,4.22
2023-02-06T08:15:38.069Z,5.22
2023-02-06T08:18:05.498Z,4.55
2023-02-06T08:20:32.894Z,4.32
2023-02-06T08:23:00.113Z,4.63
2023-02-06T08:25:27.361Z,4.22
2023-02-06T08:27:55.172Z,4.88
2023-02-06T08:30:23.248Z,4.82
2023-02-06T08:32:50.575Z,4.35
2023-02-06T08:35:17.888Z,4.32
2023-02-06T08:37:45.126Z,3.92
2023-02-06T08:40:12.415Z,4.57
2023-02-06T08:42:39.742Z,4.07
2023-02-06T08:45:07.511Z,4.70
2023-02-06T08:47:34.788Z,4.43
2023-02-06T08:50:03.763Z,5.13
2023-02-06T08:52:31.140Z,4.45
2023-02-06T08:54:58.355Z,4.25
2023-02-06T08:57:25.588Z,4.18
2023-02-06T08:59:52.831Z,4.30
2023-02-06T09:02:20.086Z,4.63
2023-02-06T09:04:47.368Z,4.10
2023-02-06T09:07:17.135Z,3.97
2023-02-06T09:09:44.472Z,3.78
2023-02-06T09:12:12.032Z,3.70
2023-02-06T09:14:39.064Z,4.30
2023-02-06T09:17:06.296Z,3.78
2023-02-06T09:19:33.480Z,3.67
2023-02-06T09:22:01.063Z,3.75
2023-02-06T09:24:30.246Z,3.80
2023-02-06T09:27:00.336Z,4.13
2023-02-06T09:29:29.554Z,4.07
2023-02-06T09:31:57.563Z,4.30
2023-02-06T09:34:27.572Z,4.15
2023-02-06T09:36:56.643Z,3.63
2023-02-06T09:39:23.915Z,3.75
2023-02-06T09:41:51.125Z,3.78
2023-02-06T09:44:34.552Z,4.00
2023-02-06T09:47:07.472Z,4.07
2023-02-06T09:49:54.627Z,3.17
2023-02-06T09:52:33.044Z,4.15
2023-02-06T09:55:05.854Z,3.45
2023-02-06T09:57:47.752Z,4.03
2023-02-06T10:00:29.644Z,3.35
2023-02-06T10:03:24.194Z,3.67
2023-02-06T10:06:27.005Z,3.35
2023-02-06T10:09:14.874Z,4.18
2023-02-06T10:11:52.829Z,3.42
2023-02-06T10:14:30.991Z,3.53
2023-02-06T10:17:04.670Z,4.07
2023-02-06T10:19:48.121Z,3.85
2023-02-06T10:22:27.970Z,3.70
2023-02-06T10:25:13.412Z,3.72
2023-02-06T10:27:44.230Z,3.38
2023-02-06T10:30:20.349Z,3.88
2023-02-06T10:33:24.881Z,3.03
2023-02-06T10:36:29.317Z,3.05
2023-02-06T10:39:25.942Z,3.38
2023-02-06T10:41:53.098Z,3.13
2023-02-06T10:44:30.863Z,2.85
2023-02-06T10:46:58.197Z,3.10
2023-02-06T10:49:36.420Z,3.17
2023-02-06T10:52:12.197Z,2.50
2023-02-06T10:54:50.840Z,2.47
2023-02-06T10:57:21.720Z,2.38
2023-02-06T10:59:53.531Z,2.90
2023-02-06T11:02:21.292Z,2.50
2023-02-06T11:04:57.377Z,2.05
2023-02-06T11:10:03.564Z,2.00
2023-02-06T11:12:33.026Z,2.40
2023-02-06T11:15:06.400Z,2.28
2023-02-06T11:17:34.338Z,2.30
2023-02-06T11:20:17.989Z,2.20
2023-02-06T11:22:52.731Z,2.88
2023-02-06T11:25:33.632Z,2.08
2023-02-06T11:28:01.021Z,2.17
2023-02-06T11:30:29.463Z,2.28
2023-02-06T11:33:04.858Z,2.17
2023-02-06T11:35:35.022Z,1.95
2023-02-06T11:38:15.176Z,2.13
2023-02-06T11:40:42.870Z,2.45
2023-02-06T11:43:25.044Z,2.40
2023-02-06T11:46:07.974Z,2.10
2023-02-06T11:48:47.142Z,2.13
2023-02-06T11:51:14.732Z,2.10
2023-02-06T11:53:56.764Z,2.28
2023-02-06T11:56:24.338Z,2.03
2023-02-06T11:59:15.565Z,2.03
2023-02-06T12:01:48.044Z,2.00
2023-02-06T12:04:23.699Z,2.00
2023-02-06T12:07:08.668Z,2.10
2023-02-06T12:09:35.893Z,2.10
2023-02-06T12:12:17.739Z,1.98
2023-02-06T12:14:53.701Z,2.17
2023-02-06T12:17:30.766Z,1.85
2023-02-06T12:20:03.091Z,2.05
2023-02-06T12:22:35.676Z,1.77
2023-02-06T12:25:04.445Z,2.03
2023-02-06T12:27:39.256Z,1.90
2023-02-06T12:30:28.478Z,1.90
2023-02-06T12:33:09.780Z,1.70
2023-02-06T12:35:45.106Z,2.00
2023-02-06T12:38:39.626Z,2.20
2023-02-06T12:41:27.995Z,1.90
2023-02-06T12:44:17.677Z,1.52
2023-02-06T12:46:46.642Z,1.90
2023-02-06T12:49:21.527Z,2.63
2023-02-06T12:52:16.852Z,2.15
2023-02-06T12:55:01.018Z,2.10
2023-02-06T12:57:31.433Z,2.25
2023-02-06T12:59:58.961Z,2.00
2023-02-06T13:03:13.189Z,1.60
2023-02-06T13:05:44.324Z,1.50
2023-02-06T13:08:33.169Z,1.70
2023-02-06T13:11:06.898Z,1.88
2023-02-06T13:13:37.857Z,1.98
2023-02-06T13:16:06.399Z,1.60
2023-02-06T13:18:40.686Z,1.67
2023-02-06T13:21:15.312Z,1.40
2023-02-06T13:24:16.344Z,1.90
2023-02-06T13:26:51.442Z,1.60
2023-02-06T13:29:26.658Z,2.00
2023-02-06T13:32:22.580Z,1.63
2023-02-06T13:34:50.503Z,2.10
2023-02-06T13:37:35.269Z,2.15
2023-02-06T13:40:32.204Z,2.10
2023-02-06T13:47:56.041Z,2.05
2023-02-06T13:51:00.313Z,1.67
2023-02-06T13:53:48.028Z,2.13
2023-02-06T13:56:34.830Z,1.65
2023-02-06T13:59:06.502Z,1.95
2023-02-06T14:01:33.954Z,1.98
2023-02-06T14:04:01.312Z,1.63
2023-02-06T14:06:28.510Z,1.95
2023-02-06T14:09:10.334Z,2.03
2023-02-06T14:12:04.115Z,1.48
2023-02-06T14:14:43.791Z,1.45
2023-02-06T14:17:35.162Z,1.42
2023-02-06T14:20:44.113Z,1.50
2023-02-06T14:23:36.208Z,1.50
2023-02-06T14:26:24.994Z,1.33
2023-02-06T14:28:57.159Z,1.50
2023-02-06T14:31:24.660Z,1.67
2023-02-06T14:34:03.686Z,1.70
2023-02-06T14:36:53.969Z,1.30
2023-02-06T14:39:44.115Z,1.58
2023-02-06T14:42:37.125Z,1.75
2023-02-06T14:45:15.889Z,1.50
2023-02-06T14:47:43.175Z,1.70
2023-02-06T14:50:20.838Z,1.30
2023-02-06T14:53:03.371Z,1.23
2023-02-06T14:55:41.436Z,1.60
2023-02-06T14:58:29.003Z,1.30
2023-02-06T15:01:10.849Z,1.65
2023-02-06T15:03:40.090Z,1.25
2023-02-06T15:06:10.278Z,1.60
2023-02-06T15:08:37.826Z,1.52
2023-02-06T15:11:07.388Z,1.55
2023-02-06T15:13:35.950Z,1.58
2023-02-06T15:16:06.493Z,1.40
2023-02-06T15:18:34.521Z,1.45
2023-02-06T15:21:05.017Z,1.70
2023-02-06T15:23:43.534Z,1.65
2023-02-06T15:26:37.993Z,1.40
2023-02-06T15:29:14.892Z,1.40
2023-02-06T15:31:48.575Z,1.38
2023-02-06T15:34:18.193Z,1.33
2023-02-06T15:36:45.735Z,1.55
2023-02-06T15:39:13.968Z,1.60
2023-02-06T15:41:50.218Z,1.35
2023-02-06T15:44:47.693Z,1.70
2023-02-06T15:47:17.481Z,1.35
2023-02-06T15:49:48.447Z,0.90
2023-02-06T15:52:36.060Z,1.42
2023-02-06T15:55:03.399Z,2.00
2023-02-06T15:57:38.256Z,1.13
2023-02-06T16:00:09.633Z,1.42
2023-02-06T16:02:40.748Z,1.33
2023-02-06T16:05:18.774Z,1.52
2023-02-06T16:07:48.179Z,1.45
2023-02-06T16:10:29.993Z,1.40
2023-02-06T16:13:00.123Z,1.80
2023-02-06T16:15:30.222Z,1.73
2023-02-06T16:17:59.983Z,1.38
2023-02-06T16:20:36.646Z,1.83
2023-02-06T16:23:24.232Z,1.90
2023-02-06T16:26:07.457Z,1.40
2023-02-06T16:28:42.162Z,1.40
2023-02-06T16:31:14.567Z,1.70
2023-02-06T16:33:47.355Z,1.60
2023-02-06T16:36:16.346Z,1.90
2023-02-06T16:38:48.340Z,1.92
2023-02-06T16:41:29.650Z,1.25
2023-02-06T16:43:57.886Z,1.90
2023-02-06T16:46:26.233Z,1.95
2023-02-06T16:48:54.039Z,1.70
2023-02-06T16:51:25.314Z,2.47
2023-02-06T16:53:52.723Z,2.47
2023-02-06T16:56:20.646Z,1.98
2023-02-06T16:58:48.207Z,1.98
2023-02-06T17:01:25.652Z,2.25
2023-02-06T17:03:53.685Z,1.80
2023-02-06T17:06:33.489Z,2.80
2023-02-06T17:09:05.420Z,2.53
2023-02-06T17:11:33.017Z,2.05
2023-02-06T17:14:00.281Z,1.98
2023-02-06T17:16:28.487Z,2.22
2023-02-06T17:18:56.575Z,2.28
2023-02-06T17:21:24.970Z,1.85
2023-02-06T17:23:52.562Z,2.22
2023-02-06T17:26:22.858Z,1.60
2023-02-06T17:28:50.774Z,1.85
2023-02-06T17:31:18.843Z,1.95
2023-02-06T17:33:46.355Z,1.73
2023-02-06T17:36:22.366Z,2.03
2023-02-06T17:38:49.745Z,1.50
2023-02-06T17:41:16.992Z,1.55
2023-02-06T17:43:44.246Z,1.88
2023-02-06T17:46:11.657Z,2.22
2023-02-06T17:48:42.710Z,1.90
2023-02-06T17:51:10.110Z,2.15
2023-02-06T17:53:37.452Z,2.17
2023-02-06T17:56:11.989Z,2.05
2023-02-06T17:58:39.938Z,2.20
2023-02-06T18:01:11.735Z,2.38
2023-02-06T18:03:38.584Z,2.35
2023-02-06T18:06:05.895Z,2.10
2023-02-06T18:08:32.751Z,2.30
2023-02-06T18:11:00.096Z,1.90
2023-02-06T18:13:28.505Z,2.25
2023-02-06T18:15:57.390Z,2.20
2023-02-06T18:18:26.060Z,2.30
2023-02-06T18:20:53.426Z,2.22
2023-02-06T18:23:20.959Z,2.22
2023-02-06T18:25:48.758Z,2.38
2023-02-06T18:28:18.046Z,2.10
2023-02-06T18:30:45.475Z,2.47
2023-02-06T18:33:13.129Z,2.28
2023-02-06T18:35:45.666Z,2.40
2023-02-06T18:38:14.224Z,2.35
2023-02-06T18:40:43.154Z,2.10
2023-02-06T18:43:10.491Z,2.15
2023-02-06T18:45:39.163Z,2.67
2023-02-06T18:48:08.977Z,2.28
2023-02-06T18:50:38.874Z,2.88
2023-02-06T18:53:06.138Z,2.22
2023-02-06T18:55:35.259Z,2.88
2023-02-06T18:58:03.337Z,2.92
2023-02-06T19:00:30.712Z,3.05
2023-02-06T19:02:58.532Z,2.90
2023-02-06T19:05:25.874Z,2.50
2023-02-06T19:07:53.776Z,3.72
2023-02-06T19:10:21.726Z,4.95
2023-02-06T19:12:49.001Z,3.65
2023-02-06T19:15:16.400Z,13.32
2023-02-06T19:17:43.435Z,21.60
2023-02-06T19:20:11.517Z,15.35
2023-02-06T19:22:38.787Z,10.60
2023-02-06T19:25:10.637Z,6.65
2023-02-06T19:27:39.039Z,5.82
2023-02-06T19:30:07.888Z,5.05
2023-02-06T19:32:35.572Z,5.25
2023-02-06T19:35:03.453Z,4.05
2023-02-06T19:37:30.869Z,4.82
2023-02-06T19:39:57.643Z,3.85
2023-02-06T19:42:25.024Z,4.78
2023-02-06T19:44:54.823Z,5.28
2023-02-06T19:47:22.539Z,5.10
2023-02-06T19:49:51.832Z,5.70
2023-02-06T19:52:19.275Z,5.22
2023-02-06T19:54:47.751Z,5.90
2023-02-06T19:57:16.078Z,5.60
2023-02-06T19:59:43.197Z,8.13
2023-02-06T20:02:15.121Z,5.88
2023-02-06T20:04:42.824Z,5.18
2023-02-06T20:07:10.242Z,6.38
2023-02-06T20:09:41.733Z,6.07
2023-02-06T20:12:10.244Z,4.28
2023-02-06T20:14:37.182Z,4.15
2023-02-06T20:17:04.788Z,4.10
2023-02-06T20:19:32.332Z,3.92
2023-02-06T20:22:00.290Z,5.03
2023-02-06T20:24:30.363Z,4.72
2023-02-06T20:26:59.480Z,4.20
2023-02-06T20:29:30.187Z,3.88
2023-02-06T20:31:58.041Z,4.28
2023-02-06T20:34:26.743Z,4.55
2023-02-06T20:36:54.776Z,5.18
2023-02-06T20:39:22.108Z,5.07
2023-02-06T20:41:50.309Z,7.78
2023-02-06T20:44:18.040Z,5.43
2023-02-06T20:46:45.481Z,5.72
2023-02-06T20:49:18.837Z,5.18
2023-02-06T20:51:45.981Z,3.80
2023-02-06T20:54:13.421Z,4.47
2023-02-06T20:56:41.024Z,3.70
2023-02-06T20:59:11.734Z,3.88
2023-02-06T21:01:39.144Z,3.97
2023-02-06T21:04:07.965Z,4.75
2023-02-06T21:06:36.926Z,3.97
2023-02-06T21:09:05.476Z,4.65
2023-02-06T21:11:35.533Z,3.83
2023-02-06T21:14:04.953Z,4.07
2023-02-06T21:16:32.510Z,3.50
2023-02-06T21:19:00.231Z,3.78
2023-02-06T21:21:27.773Z,3.83
2023-02-06T21:23:58.789Z,3.85
2023-02-06T21:26:27.416Z,3.65
2023-02-06T21:28:54.507Z,3.85
2023-02-06T21:31:33.309Z,3.80
2023-02-06T21:34:09.027Z,4.93
2023-02-06T21:36:38.147Z,4.40
2023-02-06T21:39:05.775Z,4.50
2023-02-06T21:41:33.205Z,4.20
2023-02-06T21:44:00.528Z,4.00
2023-02-06T21:46:30.756Z,3.83
2023-02-06T21:48:58.083Z,3.70
2023-02-06T21:51:25.355Z,3.30
2023-02-06T21:53:52.641Z,3.40
2023-02-06T21:56:25.455Z,3.47
2023-02-06T21:58:52.881Z,3.95
2023-02-06T22:01:26.146Z,3.47
2023-02-06T22:03:53.664Z,3.63
2023-02-06T22:06:20.961Z,3.92
2023-02-06T22:08:54.167Z,3.45
2023-02-06T22:11:26.324Z,3.55
2023-02-06T22:13:57.027Z,3.55
2023-02-06T22:16:24.720Z,3.58
2023-02-06T22:18:51.827Z,3.58
2023-02-06T22:21:21.365Z,3.25
2023-02-06T22:23:49.778Z,3.25
2023-02-06T22:26:20.052Z,3.15
2023-02-06T22:28:47.739Z,3.45
2023-02-06T22:31:15.828Z,2.80
2023-02-06T22:33:42.750Z,2.92
2023-02-06T22:36:13.175Z,2.83
2023-02-06T22:38:41.325Z,2.83
2023-02-06T22:41:11.245Z,2.92
2023-02-06T22:43:39.715Z,3.20
2023-02-06T22:46:07.735Z,2.42
2023-02-06T22:48:35.773Z,2.42
2023-02-06T22:51:09.777Z,2.78
2023-02-06T22:53:38.259Z,2.92
2023-02-06T22:56:29.646Z,2.58
2023-02-06T22:59:18.277Z,2.60
2023-02-06T23:01:50.791Z,2.38
2023-02-06T23:04:23.568Z,2.85
2023-02-06T23:06:51.745Z,3.50
2023-02-06T23:09:21.961Z,2.90
2023-02-06T23:11:49.579Z,3.30
2023-02-06T23:14:17.760Z,3.67
2023-02-06T23:16:44.985Z,2.47
2023-02-06T23:19:13.554Z,2.90
2023-02-06T23:21:42.718Z,2.55
2023-02-06T23:24:10.311Z,2.90
2023-02-06T23:26:37.932Z,3.03
2023-02-06T23:29:09.514Z,2.90
2023-02-06T23:31:36.958Z,3.30
2023-02-06T23:34:04.297Z,2.90
2023-02-06T23:36:31.068Z,3.33
2023-02-06T23:39:00.398Z,3.63
2023-02-06T23:41:28.435Z,3.45
2023-02-06T23:44:06.510Z,2.92
2023-02-06T23:46:36.226Z,2.75
2023-02-06T23:49:03.769Z,3.13
2023-02-06T23:51:32.077Z,3.30
2023-02-06T23:53:59.439Z,2.90
2023-02-06T23:56:28.506Z,2.92
2023-02-06T23:58:57.239Z,3.38
